F/V Moorea — FMIT — position and weather

sailwx.info

Track history (hours):
 
Tides and Currents Weather Stations Pressure Air Temp Water Temp Dewpoint Dewpoint Depression Visibility Wind Speed Wind Dir Waves Ship Positions

F/V Moorea

Last reported at 2017-Mar-27 07:27 UTC. Time now 2017-Mar-27 08:32 UTC.
Position N 46°57' W 003°23'.

Length 18 m.

Type: Fishing. MMSI: 228239900.

Date/timePositionNaut miles runAvg speedWind from/ knotsBaromVisibWave heightAir tempDewpointWater temp
2017-Mar-27 07:27N 46°57' W 003°23'3 3.2
2017-Mar-27 06:33N 47°00' W 003°23'3 3.2
2017-Mar-27 05:33N 47°03' W 003°24'4 3.0
2017-Mar-27 04:22N 47°05' W 003°29'3 3.5
2017-Mar-27 03:33N 47°07' W 003°29'4 2.7
2017-Mar-27 02:14N 47°05' W 003°25'3 3.1
2017-Mar-27 01:23N 47°05' W 003°29'3 3.2
2017-Mar-27 00:34N 47°07' W 003°29'3 2.6
2017-Mar-26 23:33N 47°06' W 003°26'4 4.0
2017-Mar-26 22:33N 47°02' W 003°24'3 2.5
2017-Mar-26 21:23N 47°03' W 003°28'5 2.5
2017-Mar-26 19:17N 46°59' W 003°23'10 2.5
2017-Mar-26 15:20N 46°50' W 003°19'2 0.3
2017-Mar-26 10:08N 46°51' W 003°21'6 0.7
2017-Mar-26 01:05N 46°56' W 003°25'4 0.8
2017-Mar-25 20:05N 47°00' W 003°23'2 2.2
2017-Mar-25 19:23N 46°59' W 003°21'6 3.3
2017-Mar-25 17:32N 46°53' W 003°21'11 0.9
2017-Mar-25 06:08N 46°57' W 003°06'610.0
2017-Mar-25 05:32N 47°01' W 002°60'10 9.9
2017-Mar-25 04:32N 47°07' W 002°49'9 9.6
2017-Mar-25 03:33N 47°14' W 002°39'7 7.0
2017-Mar-25 02:33N 47°18' W 002°31'0 0.0
2017-Mar-25 01:33N 47°18' W 002°31'2 2.4
2017-Mar-25 00:33N 47°18' W 002°34'9 8.5
2017-Mar-24 23:32N 47°13' W 002°43'9 9.0
2017-Mar-24 22:32N 47°07' W 002°54'  
2017-Mar-22 13:11N 46°58' W 003°16'6 9.7
2017-Mar-22 12:32N 47°01' W 003°08'10 9.9
2017-Mar-22 11:32N 47°07' W 002°56'9 8.9
2017-Mar-22 10:32N 47°11' W 002°45'9 8.8
2017-Mar-22 09:33N 47°17' W 002°36'5 4.7
2017-Mar-22 08:33N 47°21' W 002°31'0 0.0
2017-Mar-21 16:33N 47°21' W 002°31'0 0.0
2017-Mar-21 15:33N 47°21' W 002°31'0 0.0
2017-Mar-21 14:33N 47°21' W 002°31'1 0.1
2017-Mar-21 07:20N 47°20' W 002°31'2 2.9
2017-Mar-21 06:33N 47°18' W 002°31'0 0.0
2017-Mar-20 18:09N 47°18' W 002°31'0 0.0
2017-Mar-20 17:31N 47°18' W 002°31'0 0.0
2017-Mar-20 16:30N 47°18' W 002°31'0 0.0
2017-Mar-20 15:32N 47°18' W 002°31'0 0.0
2017-Mar-20 14:33N 47°18' W 002°31'0 0.0
2017-Mar-20 11:22N 47°18' W 002°31'0 0.0
2017-Mar-20 10:31N 47°18' W 002°31'0 0.0
2017-Mar-20 09:33N 47°18' W 002°31'0 0.0
2017-Mar-20 08:33N 47°18' W 002°31'0 0.0
2017-Mar-20 07:33N 47°18' W 002°31'0 0.0
2017-Mar-20 06:33N 47°18' W 002°31'  
2017-Mar-17 14:33N 47°18' W 002°31'0 0.0
2017-Mar-17 10:31N 47°18' W 002°31'0 0.0
2017-Mar-17 09:33N 47°18' W 002°31'0 0.0
2017-Mar-17 08:33N 47°18' W 002°31'0 0.0
2017-Mar-17 07:30N 47°18' W 002°31'  
Track history (hours):
 
Tides and Currents Weather Stations Pressure Air Temp Water Temp Dewpoint Dewpoint Depression Visibility Wind Speed Wind Dir Waves Ship Positions

F/V Moorea

Last reported at 2017-Mar-27 07:27 UTC. Time now 2017-Mar-27 08:32 UTC.
Position N 46°57' W 003°23'.

Length 18 m.

Type: Fishing. MMSI: 228239900.

Date/timePositionNaut miles runAvg speedWind from/ knotsBaromVisibWave heightAir tempDewpointWater temp
2017-Mar-27 07:27N 46°57' W 003°23'3 3.2
2017-Mar-27 06:33N 47°00' W 003°23'3 3.2
2017-Mar-27 05:33N 47°03' W 003°24'4 3.0
2017-Mar-27 04:22N 47°05' W 003°29'3 3.5
2017-Mar-27 03:33N 47°07' W 003°29'4 2.7
2017-Mar-27 02:14N 47°05' W 003°25'3 3.1
2017-Mar-27 01:23N 47°05' W 003°29'3 3.2
2017-Mar-27 00:34N 47°07' W 003°29'3 2.6
2017-Mar-26 23:33N 47°06' W 003°26'4 4.0
2017-Mar-26 22:33N 47°02' W 003°24'3 2.5
2017-Mar-26 21:23N 47°03' W 003°28'5 2.5
2017-Mar-26 19:17N 46°59' W 003°23'10 2.5
2017-Mar-26 15:20N 46°50' W 003°19'2 0.3
2017-Mar-26 10:08N 46°51' W 003°21'6 0.7
2017-Mar-26 01:05N 46°56' W 003°25'4 0.8
2017-Mar-25 20:05N 47°00' W 003°23'2 2.2
2017-Mar-25 19:23N 46°59' W 003°21'6 3.3
2017-Mar-25 17:32N 46°53' W 003°21'11 0.9
2017-Mar-25 06:08N 46°57' W 003°06'610.0
2017-Mar-25 05:32N 47°01' W 002°60'10 9.9
2017-Mar-25 04:32N 47°07' W 002°49'9 9.6
2017-Mar-25 03:33N 47°14' W 002°39'7 7.0
2017-Mar-25 02:33N 47°18' W 002°31'0 0.0
2017-Mar-25 01:33N 47°18' W 002°31'2 2.4
2017-Mar-25 00:33N 47°18' W 002°34'9 8.5
2017-Mar-24 23:32N 47°13' W 002°43'9 9.0
2017-Mar-24 22:32N 47°07' W 002°54'  
2017-Mar-22 13:11N 46°58' W 003°16'6 9.7
2017-Mar-22 12:32N 47°01' W 003°08'10 9.9
2017-Mar-22 11:32N 47°07' W 002°56'9 8.9
2017-Mar-22 10:32N 47°11' W 002°45'9 8.8
2017-Mar-22 09:33N 47°17' W 002°36'5 4.7
2017-Mar-22 08:33N 47°21' W 002°31'0 0.0
2017-Mar-21 16:33N 47°21' W 002°31'0 0.0
2017-Mar-21 15:33N 47°21' W 002°31'0 0.0
2017-Mar-21 14:33N 47°21' W 002°31'1 0.1
2017-Mar-21 07:20N 47°20' W 002°31'2 2.9
2017-Mar-21 06:33N 47°18' W 002°31'0 0.0
2017-Mar-20 18:09N 47°18' W 002°31'0 0.0
2017-Mar-20 17:31N 47°18' W 002°31'0 0.0
2017-Mar-20 16:30N 47°18' W 002°31'0 0.0
2017-Mar-20 15:32N 47°18' W 002°31'0 0.0
2017-Mar-20 14:33N 47°18' W 002°31'0 0.0
2017-Mar-20 11:22N 47°18' W 002°31'0 0.0
2017-Mar-20 10:31N 47°18' W 002°31'0 0.0
2017-Mar-20 09:33N 47°18' W 002°31'0 0.0
2017-Mar-20 08:33N 47°18' W 002°31'0 0.0
2017-Mar-20 07:33N 47°18' W 002°31'0 0.0
2017-Mar-20 06:33N 47°18' W 002°31'  
2017-Mar-17 14:33N 47°18' W 002°31'0 0.0
2017-Mar-17 10:31N 47°18' W 002°31'0 0.0
2017-Mar-17 09:33N 47°18' W 002°31'0 0.0
2017-Mar-17 08:33N 47°18' W 002°31'0 0.0
2017-Mar-17 07:30N 47°18' W 002°31'  

Dump ship's entire track history